sensor_id;sensor_type;location;lat;lon;timestamp;P1;durP1;ratioP1;P2;durP2;ratioP2
15706;SDS011;7953;54.302;10.128;2023-04-25T00:00:17;11.53;;;3.60;;
15706;SDS011;7953;54.302;10.128;2023-04-25T00:02:44;8.37;;;2.77;;
15706;SDS011;7953;54.302;10.128;2023-04-25T00:05:11;12.33;;;3.43;;
15706;SDS011;7953;54.302;10.128;2023-04-25T00:07:41;12.67;;;3.40;;
15706;SDS011;7953;54.302;10.128;2023-04-25T00:10:08;11.43;;;3.50;;
15706;SDS011;7953;54.302;10.128;2023-04-25T00:12:37;9.97;;;4.03;;
15706;SDS011;7953;54.302;10.128;2023-04-25T00:15:04;11.67;;;4.03;;
15706;SDS011;7953;54.302;10.128;2023-04-25T00:17:32;9.13;;;3.33;;
15706;SDS011;7953;54.302;10.128;2023-04-25T00:19:59;11.10;;;3.10;;
15706;SDS011;7953;54.302;10.128;2023-04-25T00:22:29;14.23;;;4.27;;
15706;SDS011;7953;54.302;10.128;2023-04-25T00:24:58;10.07;;;3.53;;
15706;SDS011;7953;54.302;10.128;2023-04-25T00:27:25;10.00;;;3.23;;
15706;SDS011;7953;54.302;10.128;2023-04-25T00:29:52;16.20;;;4.20;;
15706;SDS011;7953;54.302;10.128;2023-04-25T00:32:19;12.77;;;3.30;;
15706;SDS011;7953;54.302;10.128;2023-04-25T00:34:46;11.20;;;3.03;;
15706;SDS011;7953;54.302;10.128;2023-04-25T00:37:13;17.57;;;4.43;;
15706;SDS011;7953;54.302;10.128;2023-04-25T00:39:40;14.20;;;4.30;;
15706;SDS011;7953;54.302;10.128;2023-04-25T00:42:08;17.93;;;3.80;;
15706;SDS011;7953;54.302;10.128;2023-04-25T00:44:35;14.87;;;4.27;;
15706;SDS011;7953;54.302;10.128;2023-04-25T00:47:03;12.23;;;3.67;;
15706;SDS011;7953;54.302;10.128;2023-04-25T00:49:31;14.87;;;3.60;;
15706;SDS011;7953;54.302;10.128;2023-04-25T00:51:57;10.03;;;3.73;;
15706;SDS011;7953;54.302;10.128;2023-04-25T00:54:24;10.00;;;3.53;;
15706;SDS011;7953;54.302;10.128;2023-04-25T00:56:52;17.03;;;3.97;;
15706;SDS011;7953;54.302;10.128;2023-04-25T00:59:20;16.47;;;3.83;;
15706;SDS011;7953;54.302;10.128;2023-04-25T01:01:47;16.80;;;3.80;;
15706;SDS011;7953;54.302;10.128;2023-04-25T01:04:14;19.73;;;4.17;;
15706;SDS011;7953;54.302;10.128;2023-04-25T01:06:41;14.70;;;3.37;;
15706;SDS011;7953;54.302;10.128;2023-04-25T01:09:08;14.03;;;4.00;;
15706;SDS011;7953;54.302;10.128;2023-04-25T01:11:35;21.13;;;4.57;;
15706;SDS011;7953;54.302;10.128;2023-04-25T01:14:02;17.17;;;4.40;;
15706;SDS011;7953;54.302;10.128;2023-04-25T01:16:30;16.20;;;4.30;;
15706;SDS011;7953;54.302;10.128;2023-04-25T01:18:58;14.20;;;3.93;;
15706;SDS011;7953;54.302;10.128;2023-04-25T01:21:27;16.63;;;4.70;;
15706;SDS011;7953;54.302;10.128;2023-04-25T01:23:54;19.60;;;4.47;;
15706;SDS011;7953;54.302;10.128;2023-04-25T01:26:22;13.80;;;4.57;;
15706;SDS011;7953;54.302;10.128;2023-04-25T01:28:50;14.23;;;4.60;;
15706;SDS011;7953;54.302;10.128;2023-04-25T01:31:17;12.33;;;3.50;;
15706;SDS011;7953;54.302;10.128;2023-04-25T01:33:45;12.50;;;3.80;;
15706;SDS011;7953;54.302;10.128;2023-04-25T01:36:12;12.63;;;3.93;;
15706;SDS011;7953;54.302;10.128;2023-04-25T01:38:42;15.83;;;4.17;;
15706;SDS011;7953;54.302;10.128;2023-04-25T01:41:09;18.83;;;3.77;;
15706;SDS011;7953;54.302;10.128;2023-04-25T01:43:36;15.73;;;4.10;;
15706;SDS011;7953;54.302;10.128;2023-04-25T01:46:03;16.57;;;3.90;;
15706;SDS011;7953;54.302;10.128;2023-04-25T01:48:30;16.27;;;4.17;;
15706;SDS011;7953;54.302;10.128;2023-04-25T01:50:57;10.40;;;3.47;;
15706;SDS011;7953;54.302;10.128;2023-04-25T01:53:24;11.60;;;3.03;;
15706;SDS011;7953;54.302;10.128;2023-04-25T01:55:53;15.53;;;3.43;;
15706;SDS011;7953;54.302;10.128;2023-04-25T01:58:20;10.37;;;3.67;;
15706;SDS011;7953;54.302;10.128;2023-04-25T02:00:46;15.83;;;4.40;;
15706;SDS011;7953;54.302;10.128;2023-04-25T02:03:13;15.10;;;3.77;;
15706;SDS011;7953;54.302;10.128;2023-04-25T02:05:40;15.27;;;3.87;;
15706;SDS011;7953;54.302;10.128;2023-04-25T02:08:08;11.30;;;4.30;;
15706;SDS011;7953;54.302;10.128;2023-04-25T02:10:35;15.20;;;3.90;;
15706;SDS011;7953;54.302;10.128;2023-04-25T02:13:04;10.77;;;3.43;;
15706;SDS011;7953;54.302;10.128;2023-04-25T02:15:31;14.20;;;3.23;;
15706;SDS011;7953;54.302;10.128;2023-04-25T02:17:58;16.40;;;3.33;;
15706;SDS011;7953;54.302;10.128;2023-04-25T02:20:26;20.17;;;3.90;;
15706;SDS011;7953;54.302;10.128;2023-04-25T02:22:53;11.53;;;3.90;;
15706;SDS011;7953;54.302;10.128;2023-04-25T02:25:20;18.00;;;3.60;;
15706;SDS011;7953;54.302;10.128;2023-04-25T02:27:48;9.67;;;3.93;;
15706;SDS011;7953;54.302;10.128;2023-04-25T02:30:17;15.40;;;4.23;;
15706;SDS011;7953;54.302;10.128;2023-04-25T02:32:44;14.67;;;3.73;;
15706;SDS011;7953;54.302;10.128;2023-04-25T02:35:11;12.03;;;4.10;;
15706;SDS011;7953;54.302;10.128;2023-04-25T02:37:38;15.97;;;4.07;;
15706;SDS011;7953;54.302;10.128;2023-04-25T02:40:06;14.20;;;3.97;;
15706;SDS011;7953;54.302;10.128;2023-04-25T02:42:34;17.87;;;4.17;;
15706;SDS011;7953;54.302;10.128;2023-04-25T02:45:01;12.23;;;3.63;;
15706;SDS011;7953;54.302;10.128;2023-04-25T02:47:29;20.13;;;4.53;;
15706;SDS011;7953;54.302;10.128;2023-04-25T02:49:57;11.70;;;3.90;;
15706;SDS011;7953;54.302;10.128;2023-04-25T02:52:23;14.93;;;4.13;;
15706;SDS011;7953;54.302;10.128;2023-04-25T02:54:50;17.90;;;4.23;;
15706;SDS011;7953;54.302;10.128;2023-04-25T02:57:17;19.40;;;4.80;;
15706;SDS011;7953;54.302;10.128;2023-04-25T02:59:44;16.60;;;4.30;;
15706;SDS011;7953;54.302;10.128;2023-04-25T03:02:11;15.17;;;4.30;;
15706;SDS011;7953;54.302;10.128;2023-04-25T03:04:39;15.70;;;4.07;;
15706;SDS011;7953;54.302;10.128;2023-04-25T03:07:06;15.93;;;4.70;;
15706;SDS011;7953;54.302;10.128;2023-04-25T03:09:33;24.17;;;4.23;;
15706;SDS011;7953;54.302;10.128;2023-04-25T03:12:00;18.37;;;5.30;;
15706;SDS011;7953;54.302;10.128;2023-04-25T03:14:27;15.97;;;4.40;;
15706;SDS011;7953;54.302;10.128;2023-04-25T03:16:54;20.57;;;4.80;;
15706;SDS011;7953;54.302;10.128;2023-04-25T03:19:21;19.10;;;3.70;;
15706;SDS011;7953;54.302;10.128;2023-04-25T03:21:49;14.57;;;4.57;;
15706;SDS011;7953;54.302;10.128;2023-04-25T03:24:16;16.70;;;4.93;;
15706;SDS011;7953;54.302;10.128;2023-04-25T03:26:43;16.37;;;4.70;;
15706;SDS011;7953;54.302;10.128;2023-04-25T03:29:10;16.33;;;4.57;;
15706;SDS011;7953;54.302;10.128;2023-04-25T03:31:37;14.33;;;3.30;;
15706;SDS011;7953;54.302;10.128;2023-04-25T03:34:04;16.80;;;4.33;;
15706;SDS011;7953;54.302;10.128;2023-04-25T03:36:31;15.60;;;3.63;;
15706;SDS011;7953;54.302;10.128;2023-04-25T03:39:00;18.40;;;4.30;;
15706;SDS011;7953;54.302;10.128;2023-04-25T03:41:27;16.50;;;4.97;;
15706;SDS011;7953;54.302;10.128;2023-04-25T03:43:54;22.97;;;4.27;;
15706;SDS011;7953;54.302;10.128;2023-04-25T03:46:21;12.17;;;3.50;;
15706;SDS011;7953;54.302;10.128;2023-04-25T03:48:48;14.90;;;4.43;;
15706;SDS011;7953;54.302;10.128;2023-04-25T03:51:15;12.27;;;3.83;;
15706;SDS011;7953;54.302;10.128;2023-04-25T03:53:42;16.87;;;4.40;;
15706;SDS011;7953;54.302;10.128;2023-04-25T03:56:10;13.37;;;3.47;;
15706;SDS011;7953;54.302;10.128;2023-04-25T03:58:37;16.93;;;4.10;;
15706;SDS011;7953;54.302;10.128;2023-04-25T04:01:04;12.83;;;4.50;;
15706;SDS011;7953;54.302;10.128;2023-04-25T04:03:32;12.57;;;3.67;;
15706;SDS011;7953;54.302;10.128;2023-04-25T04:06:00;14.37;;;3.70;;
15706;SDS011;7953;54.302;10.128;2023-04-25T04:08:27;22.37;;;4.43;;
15706;SDS011;7953;54.302;10.128;2023-04-25T04:10:54;11.70;;;3.57;;
15706;SDS011;7953;54.302;10.128;2023-04-25T04:13:23;22.37;;;4.40;;
15706;SDS011;7953;54.302;10.128;2023-04-25T04:15:49;11.13;;;3.70;;
15706;SDS011;7953;54.302;10.128;2023-04-25T04:18:16;19.13;;;4.40;;
15706;SDS011;7953;54.302;10.128;2023-04-25T04:20:43;13.50;;;4.23;;
15706;SDS011;7953;54.302;10.128;2023-04-25T04:23:10;23.93;;;4.80;;
15706;SDS011;7953;54.302;10.128;2023-04-25T04:25:37;15.43;;;4.03;;
15706;SDS011;7953;54.302;10.128;2023-04-25T04:28:04;15.57;;;4.07;;
15706;SDS011;7953;54.302;10.128;2023-04-25T04:30:33;14.27;;;4.30;;
15706;SDS011;7953;54.302;10.128;2023-04-25T04:33:02;16.93;;;3.80;;
15706;SDS011;7953;54.302;10.128;2023-04-25T04:35:29;15.97;;;4.00;;
15706;SDS011;7953;54.302;10.128;2023-04-25T04:37:56;14.03;;;3.60;;
15706;SDS011;7953;54.302;10.128;2023-04-25T04:40:23;12.57;;;3.67;;
15706;SDS011;7953;54.302;10.128;2023-04-25T04:42:51;16.40;;;4.37;;
15706;SDS011;7953;54.302;10.128;2023-04-25T04:45:21;20.27;;;6.57;;
15706;SDS011;7953;54.302;10.128;2023-04-25T04:47:50;17.47;;;4.10;;
15706;SDS011;7953;54.302;10.128;2023-04-25T04:50:17;16.57;;;4.40;;
15706;SDS011;7953;54.302;10.128;2023-04-25T04:52:45;17.97;;;3.90;;
15706;SDS011;7953;54.302;10.128;2023-04-25T04:55:13;10.23;;;3.37;;
15706;SDS011;7953;54.302;10.128;2023-04-25T04:57:42;13.90;;;3.10;;
15706;SDS011;7953;54.302;10.128;2023-04-25T05:00:10;14.20;;;3.03;;
15706;SDS011;7953;54.302;10.128;2023-04-25T05:02:38;10.80;;;3.10;;
15706;SDS011;7953;54.302;10.128;2023-04-25T05:05:07;10.13;;;2.90;;
15706;SDS011;7953;54.302;10.128;2023-04-25T05:07:34;13.43;;;3.37;;
15706;SDS011;7953;54.302;10.128;2023-04-25T05:10:01;16.00;;;4.17;;
15706;SDS011;7953;54.302;10.128;2023-04-25T05:12:34;12.97;;;2.80;;
15706;SDS011;7953;54.302;10.128;2023-04-25T05:15:14;14.03;;;4.80;;
15706;SDS011;7953;54.302;10.128;2023-04-25T05:17:41;12.40;;;3.10;;
15706;SDS011;7953;54.302;10.128;2023-04-25T05:20:10;10.30;;;3.20;;
15706;SDS011;7953;54.302;10.128;2023-04-25T05:25:38;13.67;;;3.93;;
15706;SDS011;7953;54.302;10.128;2023-04-25T05:28:05;14.27;;;3.80;;
15706;SDS011;7953;54.302;10.128;2023-04-25T05:30:38;7.90;;;3.10;;
15706;SDS011;7953;54.302;10.128;2023-04-25T05:33:10;13.97;;;3.40;;
15706;SDS011;7953;54.302;10.128;2023-04-25T05:36:12;14.73;;;3.77;;
15706;SDS011;7953;54.302;10.128;2023-04-25T05:38:39;10.83;;;3.40;;
15706;SDS011;7953;54.302;10.128;2023-04-25T05:41:06;9.30;;;3.07;;
15706;SDS011;7953;54.302;10.128;2023-04-25T05:43:33;16.93;;;3.00;;
15706;SDS011;7953;54.302;10.128;2023-04-25T05:46:00;11.63;;;2.80;;
15706;SDS011;7953;54.302;10.128;2023-04-25T05:48:35;14.17;;;3.47;;
15706;SDS011;7953;54.302;10.128;2023-04-25T05:51:06;8.00;;;2.73;;
15706;SDS011;7953;54.302;10.128;2023-04-25T05:53:37;12.77;;;4.27;;
15706;SDS011;7953;54.302;10.128;2023-04-25T05:56:13;18.10;;;3.93;;
15706;SDS011;7953;54.302;10.128;2023-04-25T05:58:45;15.37;;;3.67;;
15706;SDS011;7953;54.302;10.128;2023-04-25T06:01:18;13.00;;;3.63;;
15706;SDS011;7953;54.302;10.128;2023-04-25T06:03:44;9.47;;;3.13;;
15706;SDS011;7953;54.302;10.128;2023-04-25T06:06:12;16.17;;;3.30;;
15706;SDS011;7953;54.302;10.128;2023-04-25T06:08:40;11.17;;;3.63;;
15706;SDS011;7953;54.302;10.128;2023-04-25T06:11:10;12.30;;;3.87;;
15706;SDS011;7953;54.302;10.128;2023-04-25T06:13:39;14.67;;;3.43;;
15706;SDS011;7953;54.302;10.128;2023-04-25T06:16:06;9.87;;;2.57;;
15706;SDS011;7953;54.302;10.128;2023-04-25T06:18:33;15.63;;;4.17;;
15706;SDS011;7953;54.302;10.128;2023-04-25T06:21:00;14.17;;;4.00;;
15706;SDS011;7953;54.302;10.128;2023-04-25T06:23:27;14.97;;;3.67;;
15706;SDS011;7953;54.302;10.128;2023-04-25T06:25:55;13.47;;;2.90;;
15706;SDS011;7953;54.302;10.128;2023-04-25T06:28:24;11.30;;;2.67;;
15706;SDS011;7953;54.302;10.128;2023-04-25T06:30:51;20.53;;;4.33;;
15706;SDS011;7953;54.302;10.128;2023-04-25T06:33:18;15.70;;;3.10;;
15706;SDS011;7953;54.302;10.128;2023-04-25T06:35:48;12.53;;;3.40;;
15706;SDS011;7953;54.302;10.128;2023-04-25T06:38:25;11.63;;;3.50;;
15706;SDS011;7953;54.302;10.128;2023-04-25T06:40:52;15.77;;;3.80;;
15706;SDS011;7953;54.302;10.128;2023-04-25T06:43:20;11.53;;;3.70;;
15706;SDS011;7953;54.302;10.128;2023-04-25T06:45:50;10.70;;;3.13;;
15706;SDS011;7953;54.302;10.128;2023-04-25T06:48:17;13.00;;;3.40;;
15706;SDS011;7953;54.302;10.128;2023-04-25T06:50:44;14.23;;;3.37;;
15706;SDS011;7953;54.302;10.128;2023-04-25T06:53:11;17.67;;;4.03;;
15706;SDS011;7953;54.302;10.128;2023-04-25T06:55:41;12.10;;;3.17;;
15706;SDS011;7953;54.302;10.128;2023-04-25T06:58:08;9.40;;;3.00;;
15706;SDS011;7953;54.302;10.128;2023-04-25T07:00:45;12.33;;;3.37;;
15706;SDS011;7953;54.302;10.128;2023-04-25T07:03:12;19.37;;;4.10;;
15706;SDS011;7953;54.302;10.128;2023-04-25T07:05:39;11.80;;;3.27;;
15706;SDS011;7953;54.302;10.128;2023-04-25T07:08:06;13.77;;;3.70;;
15706;SDS011;7953;54.302;10.128;2023-04-25T07:10:33;12.70;;;3.10;;
15706;SDS011;7953;54.302;10.128;2023-04-25T07:13:00;18.67;;;3.97;;
15706;SDS011;7953;54.302;10.128;2023-04-25T07:15:27;10.37;;;3.37;;
15706;SDS011;7953;54.302;10.128;2023-04-25T07:17:55;14.47;;;4.37;;
15706;SDS011;7953;54.302;10.128;2023-04-25T07:20:22;13.80;;;2.87;;
15706;SDS011;7953;54.302;10.128;2023-04-25T07:22:49;10.07;;;3.17;;
15706;SDS011;7953;54.302;10.128;2023-04-25T07:25:38;11.07;;;3.57;;
15706;SDS011;7953;54.302;10.128;2023-04-25T07:28:08;19.50;;;4.20;;
15706;SDS011;7953;54.302;10.128;2023-04-25T07:30:35;9.63;;;2.90;;
15706;SDS011;7953;54.302;10.128;2023-04-25T07:33:15;17.17;;;3.43;;
15706;SDS011;7953;54.302;10.128;2023-04-25T07:35:45;10.10;;;2.93;;
15706;SDS011;7953;54.302;10.128;2023-04-25T07:38:15;9.13;;;2.80;;
15706;SDS011;7953;54.302;10.128;2023-04-25T07:40:42;9.50;;;3.20;;
15706;SDS011;7953;54.302;10.128;2023-04-25T07:43:15;10.97;;;3.37;;
15706;SDS011;7953;54.302;10.128;2023-04-25T07:46:01;13.93;;;2.63;;
15706;SDS011;7953;54.302;10.128;2023-04-25T07:48:51;13.53;;;3.30;;
15706;SDS011;7953;54.302;10.128;2023-04-25T07:51:33;16.40;;;2.93;;
15706;SDS011;7953;54.302;10.128;2023-04-25T07:57:30;9.70;;;2.53;;
15706;SDS011;7953;54.302;10.128;2023-04-25T08:02:47;11.47;;;3.37;;
15706;SDS011;7953;54.302;10.128;2023-04-25T08:03:20;15.40;;;2.97;;
15706;SDS011;7953;54.302;10.128;2023-04-25T08:06:03;13.40;;;2.73;;
15706;SDS011;7953;54.302;10.128;2023-04-25T08:08:34;10.17;;;2.80;;
15706;SDS011;7953;54.302;10.128;2023-04-25T08:11:01;9.17;;;2.60;;
15706;SDS011;7953;54.302;10.128;2023-04-25T08:13:28;12.93;;;3.00;;
15706;SDS011;7953;54.302;10.128;2023-04-25T08:16:15;13.63;;;2.70;;
15706;SDS011;7953;54.302;10.128;2023-04-25T08:18:42;9.07;;;2.50;;
15706;SDS011;7953;54.302;10.128;2023-04-25T08:21:22;11.87;;;2.70;;
15706;SDS011;7953;54.302;10.128;2023-04-25T08:23:56;9.70;;;2.70;;
15706;SDS011;7953;54.302;10.128;2023-04-25T08:26:28;9.83;;;2.67;;
15706;SDS011;7953;54.302;10.128;2023-04-25T08:29:06;12.57;;;2.67;;
15706;SDS011;7953;54.302;10.128;2023-04-25T08:31:41;11.13;;;2.57;;
15706;SDS011;7953;54.302;10.128;2023-04-25T08:34:14;10.77;;;2.87;;
15706;SDS011;7953;54.302;10.128;2023-04-25T08:39:39;8.90;;;2.37;;
15706;SDS011;7953;54.302;10.128;2023-04-25T08:42:17;5.87;;;2.13;;
15706;SDS011;7953;54.302;10.128;2023-04-25T08:44:58;9.93;;;2.43;;
15706;SDS011;7953;54.302;10.128;2023-04-25T08:47:49;6.40;;;2.20;;
15706;SDS011;7953;54.302;10.128;2023-04-25T08:50:29;12.00;;;2.80;;
15706;SDS011;7953;54.302;10.128;2023-04-25T08:53:11;10.50;;;2.40;;
15706;SDS011;7953;54.302;10.128;2023-04-25T08:55:43;10.17;;;2.83;;
15706;SDS011;7953;54.302;10.128;2023-04-25T08:58:12;8.67;;;2.40;;
15706;SDS011;7953;54.302;10.128;2023-04-25T09:00:51;7.73;;;2.40;;
15706;SDS011;7953;54.302;10.128;2023-04-25T09:03:18;9.33;;;2.90;;
15706;SDS011;7953;54.302;10.128;2023-04-25T09:05:45;8.93;;;2.10;;
15706;SDS011;7953;54.302;10.128;2023-04-25T09:08:18;7.37;;;1.93;;
15706;SDS011;7953;54.302;10.128;2023-04-25T09:10:45;8.73;;;2.17;;
15706;SDS011;7953;54.302;10.128;2023-04-25T09:13:20;7.33;;;2.03;;
15706;SDS011;7953;54.302;10.128;2023-04-25T09:15:53;11.40;;;2.67;;
15706;SDS011;7953;54.302;10.128;2023-04-25T09:18:23;9.70;;;2.30;;
15706;SDS011;7953;54.302;10.128;2023-04-25T09:20:52;8.67;;;1.83;;
15706;SDS011;7953;54.302;10.128;2023-04-25T09:23:21;10.93;;;2.37;;
15706;SDS011;7953;54.302;10.128;2023-04-25T09:25:49;8.23;;;2.27;;
15706;SDS011;7953;54.302;10.128;2023-04-25T09:28:22;14.90;;;2.87;;
15706;SDS011;7953;54.302;10.128;2023-04-25T09:30:54;9.67;;;2.43;;
15706;SDS011;7953;54.302;10.128;2023-04-25T09:33:28;11.90;;;2.53;;
15706;SDS011;7953;54.302;10.128;2023-04-25T09:36:01;5.90;;;2.23;;
15706;SDS011;7953;54.302;10.128;2023-04-25T09:41:13;9.53;;;3.30;;
15706;SDS011;7953;54.302;10.128;2023-04-25T09:43:49;9.73;;;2.63;;
15706;SDS011;7953;54.302;10.128;2023-04-25T09:46:16;7.07;;;2.63;;
15706;SDS011;7953;54.302;10.128;2023-04-25T09:48:48;10.60;;;2.70;;
15706;SDS011;7953;54.302;10.128;2023-04-25T09:51:18;10.97;;;2.80;;
15706;SDS011;7953;54.302;10.128;2023-04-25T09:53:48;9.80;;;2.20;;
15706;SDS011;7953;54.302;10.128;2023-04-25T09:56:15;8.03;;;2.60;;
15706;SDS011;7953;54.302;10.128;2023-04-25T09:58:46;10.00;;;3.20;;
15706;SDS011;7953;54.302;10.128;2023-04-25T10:01:15;10.90;;;2.73;;
15706;SDS011;7953;54.302;10.128;2023-04-25T10:03:43;8.27;;;2.33;;
15706;SDS011;7953;54.302;10.128;2023-04-25T10:06:14;7.97;;;2.40;;
15706;SDS011;7953;54.302;10.128;2023-04-25T10:08:49;14.50;;;2.77;;
15706;SDS011;7953;54.302;10.128;2023-04-25T10:11:20;11.77;;;2.57;;
15706;SDS011;7953;54.302;10.128;2023-04-25T10:13:50;6.07;;;2.67;;
15706;SDS011;7953;54.302;10.128;2023-04-25T10:16:17;14.83;;;2.87;;
15706;SDS011;7953;54.302;10.128;2023-04-25T10:18:46;11.13;;;2.23;;
15706;SDS011;7953;54.302;10.128;2023-04-25T10:21:14;10.43;;;2.37;;
15706;SDS011;7953;54.302;10.128;2023-04-25T10:23:43;8.10;;;2.07;;
15706;SDS011;7953;54.302;10.128;2023-04-25T10:26:12;6.53;;;1.80;;
15706;SDS011;7953;54.302;10.128;2023-04-25T10:28:55;8.93;;;2.00;;
15706;SDS011;7953;54.302;10.128;2023-04-25T10:31:23;10.27;;;3.13;;
15706;SDS011;7953;54.302;10.128;2023-04-25T10:33:51;8.03;;;2.17;;
15706;SDS011;7953;54.302;10.128;2023-04-25T10:36:21;8.60;;;2.10;;
15706;SDS011;7953;54.302;10.128;2023-04-25T10:38:49;8.60;;;2.20;;
15706;SDS011;7953;54.302;10.128;2023-04-25T10:41:21;3.87;;;1.50;;
15706;SDS011;7953;54.302;10.128;2023-04-25T10:43:59;8.87;;;1.83;;
15706;SDS011;7953;54.302;10.128;2023-04-25T10:46:28;9.13;;;1.63;;
15706;SDS011;7953;54.302;10.128;2023-04-25T10:49:01;5.57;;;1.60;;
15706;SDS011;7953;54.302;10.128;2023-04-25T10:51:29;5.67;;;1.80;;
15706;SDS011;7953;54.302;10.128;2023-04-25T10:53:57;8.47;;;2.00;;
15706;SDS011;7953;54.302;10.128;2023-04-25T10:56:27;5.57;;;1.60;;
15706;SDS011;7953;54.302;10.128;2023-04-25T10:59:06;6.83;;;1.80;;
15706;SDS011;7953;54.302;10.128;2023-04-25T11:01:36;4.53;;;1.67;;
15706;SDS011;7953;54.302;10.128;2023-04-25T11:04:18;8.57;;;1.80;;
15706;SDS011;7953;54.302;10.128;2023-04-25T11:06:48;5.90;;;1.70;;
15706;SDS011;7953;54.302;10.128;2023-04-25T11:09:38;6.17;;;1.87;;
15706;SDS011;7953;54.302;10.128;2023-04-25T11:12:08;6.03;;;1.57;;
15706;SDS011;7953;54.302;10.128;2023-04-25T11:14:36;8.33;;;1.90;;
15706;SDS011;7953;54.302;10.128;2023-04-25T11:17:03;4.33;;;1.50;;
15706;SDS011;7953;54.302;10.128;2023-04-25T11:19:34;8.50;;;1.30;;
15706;SDS011;7953;54.302;10.128;2023-04-25T11:22:01;4.90;;;1.10;;
15706;SDS011;7953;54.302;10.128;2023-04-25T11:24:29;6.03;;;1.33;;
15706;SDS011;7953;54.302;10.128;2023-04-25T11:27:00;5.60;;;1.20;;
15706;SDS011;7953;54.302;10.128;2023-04-25T11:29:32;5.13;;;1.50;;
15706;SDS011;7953;54.302;10.128;2023-04-25T11:32:06;5.77;;;1.67;;
15706;SDS011;7953;54.302;10.128;2023-04-25T11:34:35;3.70;;;1.40;;
15706;SDS011;7953;54.302;10.128;2023-04-25T11:37:02;4.47;;;1.30;;
15706;SDS011;7953;54.302;10.128;2023-04-25T11:39:29;9.37;;;1.70;;
15706;SDS011;7953;54.302;10.128;2023-04-25T11:41:56;6.87;;;1.50;;
15706;SDS011;7953;54.302;10.128;2023-04-25T11:44:23;7.27;;;1.80;;
15706;SDS011;7953;54.302;10.128;2023-04-25T11:46:52;10.87;;;2.07;;
15706;SDS011;7953;54.302;10.128;2023-04-25T11:49:19;5.20;;;1.80;;
15706;SDS011;7953;54.302;10.128;2023-04-25T11:51:47;6.80;;;1.70;;
15706;SDS011;7953;54.302;10.128;2023-04-25T11:54:16;7.93;;;1.63;;
15706;SDS011;7953;54.302;10.128;2023-04-25T11:56:43;7.10;;;1.60;;
15706;SDS011;7953;54.302;10.128;2023-04-25T11:59:11;6.97;;;2.27;;
15706;SDS011;7953;54.302;10.128;2023-04-25T12:01:41;8.07;;;1.83;;
15706;SDS011;7953;54.302;10.128;2023-04-25T12:04:16;7.07;;;1.73;;
15706;SDS011;7953;54.302;10.128;2023-04-25T12:06:51;5.13;;;1.83;;
15706;SDS011;7953;54.302;10.128;2023-04-25T12:09:20;5.77;;;1.83;;
15706;SDS011;7953;54.302;10.128;2023-04-25T12:11:58;7.57;;;2.10;;
15706;SDS011;7953;54.302;10.128;2023-04-25T12:14:28;10.40;;;2.00;;
15706;SDS011;7953;54.302;10.128;2023-04-25T12:16:58;5.17;;;1.63;;
15706;SDS011;7953;54.302;10.128;2023-04-25T12:19:33;8.00;;;2.03;;
15706;SDS011;7953;54.302;10.128;2023-04-25T12:22:00;8.10;;;2.47;;
15706;SDS011;7953;54.302;10.128;2023-04-25T12:24:29;7.17;;;2.27;;
15706;SDS011;7953;54.302;10.128;2023-04-25T12:27:00;8.67;;;2.03;;
15706;SDS011;7953;54.302;10.128;2023-04-25T12:29:31;5.23;;;1.90;;
15706;SDS011;7953;54.302;10.128;2023-04-25T12:31:59;6.53;;;1.57;;
15706;SDS011;7953;54.302;10.128;2023-04-25T12:34:27;7.10;;;1.60;;
15706;SDS011;7953;54.302;10.128;2023-04-25T12:36:58;4.70;;;1.63;;
15706;SDS011;7953;54.302;10.128;2023-04-25T12:39:24;7.93;;;2.43;;
15706;SDS011;7953;54.302;10.128;2023-04-25T12:41:53;6.87;;;2.10;;
15706;SDS011;7953;54.302;10.128;2023-04-25T12:44:20;5.33;;;1.53;;
15706;SDS011;7953;54.302;10.128;2023-04-25T12:46:47;8.13;;;1.80;;
15706;SDS011;7953;54.302;10.128;2023-04-25T12:49:15;9.47;;;1.90;;
15706;SDS011;7953;54.302;10.128;2023-04-25T12:51:42;9.23;;;2.17;;
15706;SDS011;7953;54.302;10.128;2023-04-25T12:54:10;7.20;;;2.53;;
15706;SDS011;7953;54.302;10.128;2023-04-25T12:56:40;9.90;;;2.40;;
15706;SDS011;7953;54.302;10.128;2023-04-25T12:59:07;9.97;;;1.90;;
15706;SDS011;7953;54.302;10.128;2023-04-25T13:01:34;10.33;;;2.43;;
15706;SDS011;7953;54.302;10.128;2023-04-25T13:04:04;10.23;;;2.10;;
15706;SDS011;7953;54.302;10.128;2023-04-25T13:06:31;7.20;;;2.07;;
15706;SDS011;7953;54.302;10.128;2023-04-25T13:08:58;3.63;;;1.70;;
15706;SDS011;7953;54.302;10.128;2023-04-25T13:11:26;6.77;;;1.70;;
15706;SDS011;7953;54.302;10.128;2023-04-25T13:13:53;7.03;;;1.90;;
15706;SDS011;7953;54.302;10.128;2023-04-25T13:16:20;4.13;;;1.40;;
15706;SDS011;7953;54.302;10.128;2023-04-25T13:18:47;7.67;;;2.57;;
15706;SDS011;7953;54.302;10.128;2023-04-25T13:21:14;7.33;;;2.17;;
15706;SDS011;7953;54.302;10.128;2023-04-25T13:23:44;7.00;;;2.20;;
15706;SDS011;7953;54.302;10.128;2023-04-25T13:26:11;4.30;;;2.30;;
15706;SDS011;7953;54.302;10.128;2023-04-25T13:28:40;9.10;;;2.27;;
15706;SDS011;7953;54.302;10.128;2023-04-25T13:31:07;8.50;;;2.27;;
15706;SDS011;7953;54.302;10.128;2023-04-25T13:33:33;8.07;;;2.57;;
15706;SDS011;7953;54.302;10.128;2023-04-25T13:36:02;8.27;;;1.90;;
15706;SDS011;7953;54.302;10.128;2023-04-25T13:38:30;4.73;;;1.90;;
15706;SDS011;7953;54.302;10.128;2023-04-25T13:40:57;12.07;;;2.47;;
15706;SDS011;7953;54.302;10.128;2023-04-25T13:43:27;10.73;;;2.33;;
15706;SDS011;7953;54.302;10.128;2023-04-25T13:46:00;7.83;;;2.17;;
15706;SDS011;7953;54.302;10.128;2023-04-25T13:48:27;5.77;;;1.90;;
15706;SDS011;7953;54.302;10.128;2023-04-25T13:50:54;7.83;;;2.23;;
15706;SDS011;7953;54.302;10.128;2023-04-25T13:53:20;6.33;;;2.00;;
15706;SDS011;7953;54.302;10.128;2023-04-25T13:55:47;7.60;;;2.30;;
15706;SDS011;7953;54.302;10.128;2023-04-25T13:58:14;11.97;;;2.60;;
15706;SDS011;7953;54.302;10.128;2023-04-25T14:00:41;8.67;;;2.47;;
15706;SDS011;7953;54.302;10.128;2023-04-25T14:03:12;6.17;;;2.00;;
15706;SDS011;7953;54.302;10.128;2023-04-25T14:05:41;8.53;;;2.20;;
15706;SDS011;7953;54.302;10.128;2023-04-25T14:08:08;7.57;;;2.50;;
15706;SDS011;7953;54.302;10.128;2023-04-25T14:10:36;7.37;;;2.20;;
15706;SDS011;7953;54.302;10.128;2023-04-25T14:13:03;11.63;;;2.17;;
15706;SDS011;7953;54.302;10.128;2023-04-25T14:15:32;10.47;;;2.23;;
15706;SDS011;7953;54.302;10.128;2023-04-25T14:18:00;6.77;;;2.10;;
15706;SDS011;7953;54.302;10.128;2023-04-25T14:20:28;5.00;;;1.77;;
15706;SDS011;7953;54.302;10.128;2023-04-25T14:22:58;7.57;;;1.90;;
15706;SDS011;7953;54.302;10.128;2023-04-25T14:25:25;8.40;;;2.10;;
15706;SDS011;7953;54.302;10.128;2023-04-25T14:27:52;8.03;;;2.20;;
15706;SDS011;7953;54.302;10.128;2023-04-25T14:30:19;8.83;;;2.13;;
15706;SDS011;7953;54.302;10.128;2023-04-25T14:32:47;6.47;;;2.10;;
15706;SDS011;7953;54.302;10.128;2023-04-25T14:35:15;6.77;;;2.00;;
15706;SDS011;7953;54.302;10.128;2023-04-25T14:37:43;7.73;;;2.10;;
15706;SDS011;7953;54.302;10.128;2023-04-25T14:40:10;6.37;;;1.63;;
15706;SDS011;7953;54.302;10.128;2023-04-25T14:42:38;8.70;;;1.70;;
15706;SDS011;7953;54.302;10.128;2023-04-25T14:45:06;9.47;;;1.90;;
15706;SDS011;7953;54.302;10.128;2023-04-25T14:47:34;6.57;;;2.10;;
15706;SDS011;7953;54.302;10.128;2023-04-25T14:50:02;7.13;;;1.70;;
15706;SDS011;7953;54.302;10.128;2023-04-25T14:52:30;9.63;;;2.93;;
15706;SDS011;7953;54.302;10.128;2023-04-25T14:54:58;10.43;;;2.37;;
15706;SDS011;7953;54.302;10.128;2023-04-25T14:57:29;12.10;;;2.27;;
15706;SDS011;7953;54.302;10.128;2023-04-25T14:59:56;10.53;;;2.27;;
15706;SDS011;7953;54.302;10.128;2023-04-25T15:02:23;13.03;;;3.10;;
15706;SDS011;7953;54.302;10.128;2023-04-25T15:04:51;9.40;;;2.20;;